createdAt,value
2024-05-09T00:00:56.327Z,51.9
2024-05-09T00:02:12.354Z,51.9
2024-05-09T00:03:28.403Z,51.9
2024-05-09T00:04:44.441Z,51.9
2024-05-09T00:06:00.481Z,51.9
2024-05-09T00:07:16.544Z,51.9
2024-05-09T00:08:32.583Z,51.9
2024-05-09T00:09:48.621Z,51.9
2024-05-09T00:11:04.658Z,51.9
2024-05-09T00:12:20.688Z,51.9
2024-05-09T00:13:36.734Z,51.9
2024-05-09T00:14:52.778Z,51.9
2024-05-09T00:16:08.824Z,51.9
2024-05-09T00:17:24.864Z,51.9
2024-05-09T00:18:40.914Z,51.9
2024-05-09T00:19:56.958Z,51.9
2024-05-09T00:21:13.059Z,51.9
2024-05-09T00:22:29.156Z,51.9
2024-05-09T00:23:45.249Z,51.9
2024-05-09T00:25:01.344Z,51.9
2024-05-09T00:26:17.450Z,51.9
2024-05-09T00:27:33.549Z,51.9
2024-05-09T00:28:49.661Z,51.9
2024-05-09T00:30:05.748Z,51.9
2024-05-09T00:31:21.843Z,51.9
2024-05-09T00:32:37.942Z,51.9
2024-05-09T00:33:54.038Z,52.1
2024-05-09T00:35:10.139Z,52
2024-05-09T00:36:26.234Z,52.1
2024-05-09T00:37:42.446Z,52
2024-05-09T00:38:57.641Z,52
2024-05-09T00:40:13.663Z,52.1
2024-05-09T00:41:29.716Z,52.1
2024-05-09T00:42:45.738Z,52.1
2024-05-09T00:44:01.784Z,52.1
2024-05-09T00:45:17.821Z,52.1
2024-05-09T00:46:33.866Z,52.1
2024-05-09T00:47:49.898Z,52.1
2024-05-09T00:49:05.935Z,52.1
2024-05-09T00:50:21.979Z,52.1
2024-05-09T00:51:38.019Z,52.1
2024-05-09T00:52:54.049Z,52.1
2024-05-09T00:54:10.088Z,52.1
2024-05-09T00:55:26.138Z,52.1
2024-05-09T00:56:42.161Z,52.1
2024-05-09T00:57:58.190Z,52.1
2024-05-09T00:59:14.237Z,52.1
2024-05-09T01:00:30.263Z,52.1
2024-05-09T01:01:46.286Z,52.2
2024-05-09T01:03:02.338Z,52.2
2024-05-09T01:04:18.371Z,52.2
2024-05-09T01:05:34.398Z,52.2
2024-05-09T01:06:50.446Z,52.2
2024-05-09T01:08:06.474Z,52.2
2024-05-09T01:09:22.513Z,52.2
2024-05-09T01:10:38.620Z,52.2
2024-05-09T01:11:54.716Z,52.2
2024-05-09T01:13:10.816Z,52.2
2024-05-09T01:14:26.909Z,52.2
2024-05-09T01:15:42.993Z,52.2
2024-05-09T01:16:59.092Z,52.2
2024-05-09T01:18:15.187Z,52.2
2024-05-09T01:19:31.268Z,52.3
2024-05-09T01:20:47.375Z,52.2
2024-05-09T01:22:03.463Z,52.3
2024-05-09T01:23:19.543Z,52.3
2024-05-09T01:24:35.652Z,52.3
2024-05-09T01:25:51.732Z,52.2
2024-05-09T01:27:07.924Z,52.3
2024-05-09T01:28:23.131Z,52.2
2024-05-09T01:29:39.153Z,52.3
2024-05-09T01:30:55.183Z,52.3
2024-05-09T01:32:11.229Z,52.3
2024-05-09T01:33:27.265Z,52.3
2024-05-09T01:34:43.293Z,52.3
2024-05-09T01:35:59.321Z,52.3
2024-05-09T01:37:15.358Z,52.3
2024-05-09T01:38:31.413Z,52.3
2024-05-09T01:39:47.448Z,52.3
2024-05-09T01:41:03.494Z,52.3
2024-05-09T01:42:19.517Z,52.3
2024-05-09T01:43:35.555Z,52.3
2024-05-09T01:44:51.599Z,52.3
2024-05-09T01:46:07.633Z,52.3
2024-05-09T01:47:23.659Z,52.3
2024-05-09T01:48:39.698Z,52.3
2024-05-09T01:49:55.738Z,52.3
2024-05-09T01:51:11.775Z,52.3
2024-05-09T01:52:27.827Z,52.3
2024-05-09T01:53:43.851Z,52.3
2024-05-09T01:54:59.888Z,52.3
2024-05-09T01:56:15.926Z,52.3
2024-05-09T01:57:31.956Z,52.3
2024-05-09T01:58:48.000Z,52.4
2024-05-09T02:00:04.090Z,52.4
2024-05-09T02:01:20.169Z,52.4
2024-05-09T02:02:36.277Z,52.4
2024-05-09T02:03:52.368Z,52.4
2024-05-09T02:05:08.459Z,52.4
2024-05-09T02:06:24.555Z,52.4
2024-05-09T02:07:40.642Z,52.4
2024-05-09T02:08:56.742Z,52.4
2024-05-09T02:10:12.851Z,52.4
2024-05-09T02:11:28.952Z,52.4
2024-05-09T02:12:45.048Z,52.4
2024-05-09T02:14:00.181Z,52.4
2024-05-09T02:15:16.204Z,52.4
2024-05-09T02:16:32.249Z,52.4
2024-05-09T02:17:48.301Z,52.4
2024-05-09T02:19:04.325Z,52.4
2024-05-09T02:20:20.377Z,52.4
2024-05-09T02:21:36.412Z,52.4
2024-05-09T02:22:52.459Z,52.4
2024-05-09T02:24:08.476Z,52.4
2024-05-09T02:25:24.513Z,52.4
2024-05-09T02:26:40.566Z,52.4
2024-05-09T02:27:56.597Z,52.4
2024-05-09T02:29:12.635Z,52.4
2024-05-09T02:30:28.687Z,52.4
2024-05-09T02:31:44.731Z,52.4
2024-05-09T02:33:00.772Z,52.4
2024-05-09T02:34:16.814Z,52.5
2024-05-09T02:35:32.860Z,52.5
2024-05-09T02:36:48.896Z,52.5
2024-05-09T02:38:04.941Z,52.5
2024-05-09T02:39:20.997Z,52.5
2024-05-09T02:40:37.039Z,52.5
2024-05-09T02:41:53.098Z,52.5
2024-05-09T02:43:09.148Z,52.5
2024-05-09T02:44:25.187Z,52.5
2024-05-09T02:45:41.289Z,52.6
2024-05-09T02:46:57.382Z,52.6
2024-05-09T02:48:13.492Z,52.5
2024-05-09T02:49:29.597Z,52.5
2024-05-09T02:50:45.695Z,52.6
2024-05-09T02:52:01.819Z,52.6
2024-05-09T02:53:17.926Z,52.6
2024-05-09T02:54:34.026Z,52.6
2024-05-09T02:55:50.136Z,52.6
2024-05-09T02:57:06.236Z,52.6
2024-05-09T02:58:22.350Z,52.6
2024-05-09T02:59:38.460Z,52.6
2024-05-09T03:00:54.556Z,52.6
2024-05-09T03:02:10.776Z,52.6
2024-05-09T03:03:26.045Z,52.6
2024-05-09T03:04:42.162Z,52.6
2024-05-09T03:05:58.270Z,52.6
2024-05-09T03:07:14.365Z,52.6
2024-05-09T03:08:30.485Z,52.6
2024-05-09T03:09:46.578Z,52.6
2024-05-09T03:11:02.675Z,52.6
2024-05-09T03:12:18.783Z,52.6
2024-05-09T03:13:34.897Z,52.6
2024-05-09T03:14:50.985Z,52.6
2024-05-09T03:16:07.099Z,52.7
2024-05-09T03:17:23.180Z,52.7
2024-05-09T03:18:39.288Z,52.6
2024-05-09T03:19:55.398Z,52.6
2024-05-09T03:21:11.512Z,52.7
2024-05-09T03:22:27.615Z,52.7
2024-05-09T03:23:43.716Z,52.7
2024-05-09T03:24:59.825Z,52.7
2024-05-09T03:26:15.929Z,52.7
2024-05-09T03:27:31.046Z,52.7
2024-05-09T03:28:47.000Z,52.7
2024-05-09T03:30:03.142Z,52.7
2024-05-09T03:31:19.180Z,52.6
2024-05-09T03:32:35.218Z,52.7
2024-05-09T03:33:51.261Z,52.7
2024-05-09T03:35:07.325Z,52.7
2024-05-09T03:36:23.389Z,52.7
2024-05-09T03:37:39.433Z,52.7
2024-05-09T03:38:55.485Z,52.7
2024-05-09T03:40:11.537Z,52.7
2024-05-09T03:41:27.575Z,52.7
2024-05-09T03:42:43.619Z,52.7
2024-05-09T03:43:59.679Z,52.8
2024-05-09T03:45:15.723Z,52.7
2024-05-09T03:46:31.775Z,52.7
2024-05-09T03:47:47.823Z,52.7
2024-05-09T03:49:03.872Z,52.7
2024-05-09T03:50:19.946Z,52.7
2024-05-09T03:51:35.983Z,52.7
2024-05-09T03:52:52.042Z,52.7
2024-05-09T03:54:08.108Z,52.7
2024-05-09T03:55:24.153Z,52.7
2024-05-09T03:56:40.204Z,52.7
2024-05-09T03:57:56.258Z,52.7
2024-05-09T03:59:12.365Z,52.7
2024-05-09T04:00:28.466Z,52.7
2024-05-09T04:01:44.574Z,52.7
2024-05-09T04:03:00.691Z,52.7
2024-05-09T04:04:16.791Z,52.7
2024-05-09T04:05:32.908Z,52.7
2024-05-09T04:06:49.010Z,52.7
2024-05-09T04:08:05.111Z,52.7
2024-05-09T04:09:21.219Z,52.7
2024-05-09T04:10:37.341Z,52.7
2024-05-09T04:11:53.450Z,52.7
2024-05-09T04:13:09.552Z,52.8
2024-05-09T04:14:25.659Z,52.7
2024-05-09T04:15:41.860Z,52.7
2024-05-09T04:16:57.066Z,52.7
2024-05-09T04:18:13.124Z,52.7
2024-05-09T04:19:29.168Z,52.7
2024-05-09T04:20:45.224Z,52.7
2024-05-09T04:22:01.273Z,52.7
2024-05-09T04:23:17.318Z,52.7
2024-05-09T04:24:33.377Z,52.7
2024-05-09T04:25:49.414Z,52.7
2024-05-09T04:27:05.472Z,52.8
2024-05-09T04:28:21.516Z,52.7
2024-05-09T04:29:37.556Z,52.7
2024-05-09T04:30:53.610Z,52.7
2024-05-09T04:32:09.675Z,52.7
2024-05-09T04:33:25.716Z,52.7
2024-05-09T04:34:41.771Z,52.7
2024-05-09T04:35:57.827Z,52.7
2024-05-09T04:37:13.882Z,52.7
2024-05-09T04:38:29.921Z,52.7
2024-05-09T04:39:45.973Z,52.7
2024-05-09T04:41:02.024Z,52.7
2024-05-09T04:42:18.067Z,52.7
2024-05-09T04:43:34.115Z,52.7
2024-05-09T04:44:50.166Z,52.7
2024-05-09T04:46:06.216Z,52.7
2024-05-09T04:47:22.263Z,52.7
2024-05-09T04:48:38.371Z,52.7
2024-05-09T04:49:54.466Z,52.6
2024-05-09T04:51:10.581Z,52.7
2024-05-09T04:52:26.699Z,52.7
2024-05-09T04:53:42.802Z,52.6
2024-05-09T04:54:58.905Z,52.6
2024-05-09T04:56:15.014Z,52.7
2024-05-09T04:57:31.130Z,52.7
2024-05-09T04:58:47.224Z,52.7
2024-05-09T05:00:03.328Z,52.6
2024-05-09T05:01:19.441Z,52.7
2024-05-09T05:02:35.557Z,52.6
2024-05-09T05:03:51.659Z,52.6
2024-05-09T05:05:07.866Z,52.6
2024-05-09T05:06:23.078Z,52.6
2024-05-09T05:07:39.116Z,52.6
2024-05-09T05:08:55.152Z,52.6
2024-05-09T05:10:11.220Z,52.6
2024-05-09T05:11:27.251Z,52.6
2024-05-09T05:12:43.309Z,52.6
2024-05-09T05:13:59.350Z,52.6
2024-05-09T05:15:15.387Z,52.5
2024-05-09T05:16:31.436Z,52.6
2024-05-09T05:17:47.488Z,52.5
2024-05-09T05:19:03.533Z,52.5
2024-05-09T05:20:19.579Z,52.5
2024-05-09T05:21:35.622Z,52.5
2024-05-09T05:22:51.674Z,52.5
2024-05-09T05:24:07.720Z,52.5
2024-05-09T05:25:23.767Z,52.5
2024-05-09T05:26:39.830Z,52.5
2024-05-09T05:27:55.869Z,52.5
2024-05-09T05:29:11.928Z,52.5
2024-05-09T05:30:27.979Z,52.4
2024-05-09T05:31:44.019Z,52.4
2024-05-09T05:33:00.076Z,52.4
2024-05-09T05:34:16.116Z,52.4
2024-05-09T05:35:32.159Z,52.4
2024-05-09T05:36:48.217Z,52.4
2024-05-09T05:38:04.321Z,52.4
2024-05-09T05:39:20.435Z,52.4
2024-05-09T05:40:36.539Z,52.4
2024-05-09T05:41:52.646Z,52.3
2024-05-09T05:43:08.746Z,52.3
2024-05-09T05:44:24.854Z,52.3
2024-05-09T05:45:40.976Z,52.3
2024-05-09T05:46:57.079Z,52.3
2024-05-09T05:48:13.188Z,52.3
2024-05-09T05:49:29.280Z,52.3
2024-05-09T05:50:45.397Z,52.3
2024-05-09T05:52:01.501Z,52.2
2024-05-09T05:53:17.606Z,52.2
2024-05-09T05:54:33.808Z,52.2
2024-05-09T05:55:49.082Z,52.2
2024-05-09T05:57:05.189Z,52.2
2024-05-09T05:58:21.271Z,52.2
2024-05-09T05:59:37.372Z,52.2
2024-05-09T06:00:53.481Z,52.1
2024-05-09T06:02:09.576Z,52.1
2024-05-09T06:03:25.677Z,52.1
2024-05-09T06:04:41.781Z,52.1
2024-05-09T06:05:57.886Z,52.1
2024-05-09T06:07:13.000Z,52.1
2024-05-09T06:08:30.089Z,52.1
2024-05-09T06:09:46.205Z,52.1
2024-05-09T06:11:02.299Z,52.1
2024-05-09T06:12:18.414Z,52.1
2024-05-09T06:13:34.516Z,52
2024-05-09T06:14:50.608Z,52
2024-05-09T06:16:06.711Z,52
2024-05-09T06:17:22.820Z,52
2024-05-09T06:18:38.939Z,52
2024-05-09T06:19:55.036Z,52
2024-05-09T06:21:11.158Z,52
2024-05-09T06:22:27.262Z,51.9
2024-05-09T06:23:43.377Z,51.9
2024-05-09T06:24:59.484Z,51.9
2024-05-09T06:26:15.580Z,51.9
2024-05-09T06:27:31.779Z,51.9
2024-05-09T06:28:46.981Z,51.9
2024-05-09T06:30:03.022Z,51.9
2024-05-09T06:31:19.071Z,51.8
2024-05-09T06:32:35.119Z,51.8
2024-05-09T06:33:51.178Z,51.8
2024-05-09T06:35:07.215Z,51.8
2024-05-09T06:36:23.267Z,51.7
2024-05-09T06:37:39.315Z,51.8
2024-05-09T06:38:55.372Z,51.8
2024-05-09T06:40:11.401Z,51.7
2024-05-09T06:41:27.459Z,51.7
2024-05-09T06:42:43.498Z,51.7
2024-05-09T06:43:59.544Z,51.7
2024-05-09T06:45:15.588Z,51.7
2024-05-09T06:46:31.636Z,51.7
2024-05-09T06:47:47.678Z,51.6
2024-05-09T06:49:03.723Z,51.6
2024-05-09T06:50:19.758Z,51.6
2024-05-09T06:51:35.792Z,51.6
2024-05-09T06:52:51.839Z,51.6
2024-05-09T06:54:07.883Z,51.6
2024-05-09T06:55:23.935Z,51.6
2024-05-09T06:56:39.979Z,51.6
2024-05-09T06:57:56.040Z,51.6
2024-05-09T06:59:12.087Z,51.5
2024-05-09T07:00:28.177Z,51.5
2024-05-09T07:01:44.304Z,51.5
2024-05-09T07:03:00.387Z,51.4
2024-05-09T07:04:16.502Z,51.5
2024-05-09T07:05:32.603Z,51.4
2024-05-09T07:06:48.691Z,51.4
2024-05-09T07:08:04.812Z,51.4
2024-05-09T07:09:20.915Z,51.4
2024-05-09T07:10:37.009Z,51.4
2024-05-09T07:11:53.110Z,51.3
2024-05-09T07:13:09.219Z,51.3
2024-05-09T07:14:25.306Z,51.3
2024-05-09T07:15:41.419Z,51.3
2024-05-09T07:16:57.608Z,51.3
2024-05-09T07:18:12.798Z,51.2
2024-05-09T07:19:28.843Z,51.2
2024-05-09T07:20:44.882Z,51.2
2024-05-09T07:22:00.932Z,51.2
2024-05-09T07:23:16.977Z,51.2
2024-05-09T07:24:33.030Z,51.1
2024-05-09T07:25:49.067Z,51.1
2024-05-09T07:27:05.113Z,51.1
2024-05-09T07:28:21.149Z,51.1
2024-05-09T07:29:37.188Z,51
2024-05-09T07:30:53.228Z,51.1
2024-05-09T07:32:09.278Z,51
2024-05-09T07:33:25.315Z,51
2024-05-09T07:34:41.361Z,51
2024-05-09T07:35:57.399Z,51
2024-05-09T07:37:13.441Z,51
2024-05-09T07:38:29.490Z,50.9
2024-05-09T07:39:45.547Z,50.9
2024-05-09T07:41:01.592Z,50.9
2024-05-09T07:42:17.639Z,50.9
2024-05-09T07:43:33.696Z,50.9
2024-05-09T07:44:49.747Z,50.9
2024-05-09T07:46:05.780Z,50.8
2024-05-09T07:47:21.823Z,50.8
2024-05-09T07:48:37.868Z,50.8
2024-05-09T07:49:53.977Z,50.8
2024-05-09T07:51:10.084Z,50.8
2024-05-09T07:52:26.189Z,50.7
2024-05-09T07:53:42.295Z,50.7
2024-05-09T07:54:58.407Z,50.7
2024-05-09T07:56:14.506Z,50.7
2024-05-09T07:57:30.606Z,50.6
2024-05-09T07:58:46.704Z,50.6
2024-05-09T08:00:02.812Z,50.6
2024-05-09T08:01:18.897Z,50.5
2024-05-09T08:02:35.020Z,50.5
2024-05-09T08:03:51.127Z,50.5
2024-05-09T08:05:07.222Z,50.4
2024-05-09T08:06:23.444Z,50.4
2024-05-09T08:07:38.633Z,50.4
2024-05-09T08:08:54.686Z,50.4
2024-05-09T08:10:10.719Z,50.4
2024-05-09T08:11:26.762Z,50.4
2024-05-09T08:12:42.807Z,50.4
2024-05-09T08:13:58.869Z,50.3
2024-05-09T08:15:14.903Z,50.3
2024-05-09T08:16:30.948Z,50.3
2024-05-09T08:17:47.008Z,50.3
2024-05-09T08:19:03.056Z,50.2
2024-05-09T08:20:19.111Z,50.2
2024-05-09T08:21:35.156Z,50.2
2024-05-09T08:22:51.202Z,50.2
2024-05-09T08:24:07.254Z,50.2
2024-05-09T08:25:23.291Z,50.1
2024-05-09T08:26:39.350Z,50.1
2024-05-09T08:27:55.409Z,50.1
2024-05-09T08:29:11.447Z,50.1
2024-05-09T08:30:27.512Z,50
2024-05-09T08:31:43.551Z,50
2024-05-09T08:32:59.596Z,50
2024-05-09T08:34:15.647Z,50
2024-05-09T08:35:31.706Z,50
2024-05-09T08:36:47.757Z,49.9
2024-05-09T08:38:03.797Z,49.9
2024-05-09T08:39:19.909Z,49.9
2024-05-09T08:40:36.007Z,49.9
2024-05-09T08:41:52.114Z,49.9
2024-05-09T08:43:08.216Z,49.9
2024-05-09T08:44:24.332Z,49.8
2024-05-09T08:45:40.426Z,49.9
2024-05-09T08:46:56.519Z,49.8
2024-05-09T08:48:12.622Z,49.8
2024-05-09T08:49:28.717Z,49.7
2024-05-09T08:50:44.826Z,49.7
2024-05-09T08:52:00.914Z,49.7
2024-05-09T08:53:17.013Z,49.7
2024-05-09T08:54:33.124Z,49.7
2024-05-09T08:55:49.314Z,49.6
2024-05-09T08:57:04.584Z,49.6
2024-05-09T08:58:20.678Z,49.6
2024-05-09T08:59:36.772Z,49.6
2024-05-09T09:00:52.859Z,49.6
2024-05-09T09:02:08.960Z,49.5
2024-05-09T09:03:25.062Z,49.5
2024-05-09T09:04:41.163Z,49.5
2024-05-09T09:05:57.271Z,49.5
2024-05-09T09:07:13.366Z,49.4
2024-05-09T09:08:29.461Z,49.4
2024-05-09T09:09:45.575Z,49.4
2024-05-09T09:11:01.670Z,49.4
2024-05-09T09:12:17.772Z,49.4
2024-05-09T09:13:33.856Z,49.3
2024-05-09T09:14:49.953Z,49.3
2024-05-09T09:16:06.055Z,49.3
2024-05-09T09:17:22.152Z,49.2
2024-05-09T09:18:38.265Z,49.2
2024-05-09T09:19:54.359Z,49.2
2024-05-09T09:21:10.461Z,49.2
2024-05-09T09:22:26.541Z,49.1
2024-05-09T09:23:42.652Z,49.1
2024-05-09T09:24:58.746Z,49.1
2024-05-09T09:26:14.847Z,49.1
2024-05-09T09:27:30.939Z,49
2024-05-09T09:28:47.139Z,49
2024-05-09T09:30:02.336Z,49
2024-05-09T09:31:18.381Z,48.9
2024-05-09T09:32:34.428Z,48.9
2024-05-09T09:33:50.471Z,48.9
2024-05-09T09:35:06.502Z,48.9
2024-05-09T09:36:22.554Z,48.9
2024-05-09T09:37:38.591Z,48.8
2024-05-09T09:38:54.637Z,48.8
2024-05-09T09:40:10.661Z,48.8
2024-05-09T09:41:26.713Z,48.8
2024-05-09T09:42:42.751Z,48.8
2024-05-09T09:43:58.780Z,48.7
2024-05-09T09:45:14.836Z,48.7
2024-05-09T09:46:30.858Z,48.7
2024-05-09T09:47:46.890Z,48.6
2024-05-09T09:49:02.934Z,48.6
2024-05-09T09:50:18.971Z,48.6
2024-05-09T09:51:35.008Z,48.5
2024-05-09T09:52:51.053Z,48.5
2024-05-09T09:54:07.098Z,48.5
2024-05-09T09:55:23.136Z,48.4
2024-05-09T09:56:39.174Z,48.4
2024-05-09T09:57:55.213Z,48.4
2024-05-09T09:59:11.256Z,48.4
2024-05-09T10:00:27.295Z,48.4
2024-05-09T10:01:43.383Z,48.3
2024-05-09T10:02:59.477Z,48.2
2024-05-09T10:04:15.577Z,48.1
2024-05-09T10:05:31.679Z,48.1
2024-05-09T10:06:47.788Z,48.1
2024-05-09T10:08:03.882Z,48
2024-05-09T10:09:19.990Z,48
2024-05-09T10:10:36.077Z,48
2024-05-09T10:11:52.172Z,48
2024-05-09T10:13:08.264Z,47.9
2024-05-09T10:14:24.361Z,47.9
2024-05-09T10:15:40.462Z,47.8
2024-05-09T10:16:56.562Z,47.8
2024-05-09T10:18:12.779Z,47.8
2024-05-09T10:19:27.979Z,47.6
2024-05-09T10:20:44.010Z,47.6
2024-05-09T10:22:00.044Z,47.6
2024-05-09T10:23:16.089Z,47.5
2024-05-09T10:24:32.143Z,47.5
2024-05-09T10:25:48.175Z,47.5
2024-05-09T10:27:04.229Z,47.5
2024-05-09T10:28:20.262Z,47.4
2024-05-09T10:29:36.307Z,47.4
2024-05-09T10:30:52.337Z,47.3
2024-05-09T10:32:08.374Z,47.3
2024-05-09T10:33:24.419Z,47.3
2024-05-09T10:34:40.460Z,47.2
2024-05-09T10:35:56.489Z,47.2
2024-05-09T10:37:12.520Z,47.1
2024-05-09T10:38:28.567Z,47.1
2024-05-09T10:39:44.596Z,47
2024-05-09T10:41:00.654Z,47
2024-05-09T10:42:16.692Z,47
2024-05-09T10:43:32.725Z,46.9
2024-05-09T10:44:48.760Z,46.9
2024-05-09T10:46:04.779Z,46.8
2024-05-09T10:47:20.836Z,46.8
2024-05-09T10:48:36.866Z,46.7
2024-05-09T10:49:52.884Z,46.6
2024-05-09T10:51:08.985Z,46.6
2024-05-09T10:52:25.073Z,46.5
2024-05-09T10:53:41.147Z,46.5
2024-05-09T10:54:57.255Z,46.4
2024-05-09T10:56:13.320Z,46.4
2024-05-09T10:57:29.417Z,46.3
2024-05-09T10:58:45.495Z,46.2
2024-05-09T11:00:01.596Z,46.2
2024-05-09T11:01:17.677Z,46.2
2024-05-09T11:02:33.764Z,46.1
2024-05-09T11:03:49.844Z,46.1
2024-05-09T11:05:05.931Z,46
2024-05-09T11:06:22.023Z,46
2024-05-09T11:07:38.226Z,45.9
2024-05-09T11:08:53.420Z,45.9
2024-05-09T11:10:09.428Z,45.8
2024-05-09T11:11:25.473Z,45.8
2024-05-09T11:12:41.497Z,45.7
2024-05-09T11:13:57.533Z,45.6
2024-05-09T11:15:13.565Z,45.5
2024-05-09T11:16:29.588Z,45.5
2024-05-09T11:17:45.628Z,45.5
2024-05-09T11:19:01.655Z,45.4
2024-05-09T11:20:17.687Z,45.4
2024-05-09T11:21:33.703Z,45.3
2024-05-09T11:22:49.727Z,45.1
2024-05-09T11:24:05.758Z,45
2024-05-09T11:25:21.788Z,45
2024-05-09T11:26:37.799Z,44.9
2024-05-09T11:27:53.823Z,44.9
2024-05-09T11:29:09.859Z,44.8
2024-05-09T11:30:25.869Z,44.8
2024-05-09T11:31:41.901Z,44.8
2024-05-09T11:32:57.931Z,44.7
2024-05-09T11:34:13.950Z,44.7
2024-05-09T11:35:29.971Z,44.7
2024-05-09T11:36:45.988Z,44.7
2024-05-09T11:38:02.019Z,44.6
2024-05-09T11:39:18.022Z,44.6
2024-05-09T11:40:34.115Z,44.5
2024-05-09T11:41:50.198Z,44.5
2024-05-09T11:43:06.277Z,44.4
2024-05-09T11:44:22.342Z,44.3
2024-05-09T11:45:38.409Z,44.4
2024-05-09T11:46:54.478Z,44.3
2024-05-09T11:48:10.562Z,44.3
2024-05-09T11:49:26.628Z,44.2
2024-05-09T11:50:42.703Z,44.1
2024-05-09T11:53:14.855Z,44.2
2024-05-09T11:54:30.928Z,44.2
2024-05-09T11:55:46.995Z,44.2
2024-05-09T11:57:03.187Z,44.1
2024-05-09T11:58:18.423Z,44.1
2024-05-09T11:59:34.487Z,44.1
2024-05-09T12:00:50.573Z,44
2024-05-09T12:02:06.661Z,44
2024-05-09T12:03:22.727Z,44
2024-05-09T12:04:38.800Z,44
2024-05-09T12:05:54.888Z,44
2024-05-09T12:07:10.961Z,44
2024-05-09T12:08:27.041Z,44
2024-05-09T12:09:43.107Z,44
2024-05-09T12:10:59.176Z,44
2024-05-09T12:12:15.253Z,44
2024-05-09T12:13:31.339Z,44
2024-05-09T12:14:47.412Z,44
2024-05-09T12:16:03.490Z,43.9
2024-05-09T12:17:19.568Z,43.9
2024-05-09T12:18:35.640Z,43.9
2024-05-09T12:19:51.720Z,43.8
2024-05-09T12:21:07.807Z,43.8
2024-05-09T12:22:23.888Z,43.8
2024-05-09T12:23:39.968Z,43.7
2024-05-09T12:24:56.042Z,43.7
2024-05-09T12:26:12.143Z,43.7
2024-05-09T12:27:28.224Z,43.6
2024-05-09T12:28:44.304Z,43.6
2024-05-09T12:30:00.476Z,43.6
2024-05-09T12:31:15.650Z,43.5
2024-05-09T12:32:31.670Z,43.5
2024-05-09T12:33:47.679Z,43.5
2024-05-09T12:35:03.687Z,43.4
2024-05-09T12:36:19.719Z,43.4
2024-05-09T12:37:35.738Z,43.4
2024-05-09T12:38:51.737Z,43.5
2024-05-09T12:40:07.755Z,43.4
2024-05-09T12:41:23.768Z,43.5
2024-05-09T12:42:39.780Z,43.5
2024-05-09T12:43:55.791Z,43.5
2024-05-09T12:45:11.807Z,43.5
2024-05-09T12:46:27.814Z,43.5
2024-05-09T12:47:43.828Z,43.5
2024-05-09T12:48:59.857Z,43.5
2024-05-09T12:50:15.853Z,43.5
2024-05-09T12:51:31.876Z,43.5
2024-05-09T12:52:47.896Z,43.4
2024-05-09T12:54:03.895Z,43.4
2024-05-09T12:55:19.904Z,43.3
2024-05-09T12:56:35.921Z,43.3
2024-05-09T12:57:51.932Z,43.2
2024-05-09T12:59:07.956Z,43.2
2024-05-09T13:00:23.966Z,43.2
2024-05-09T13:01:39.983Z,43.1
2024-05-09T13:02:56.060Z,43.1
2024-05-09T13:04:12.136Z,43.1
2024-05-09T13:05:28.215Z,43.1
2024-05-09T13:06:44.290Z,43.1
2024-05-09T13:08:00.361Z,43.1
2024-05-09T13:09:16.434Z,43
2024-05-09T13:10:32.509Z,43.1
2024-05-09T13:11:48.588Z,43
2024-05-09T13:13:04.655Z,42.9
2024-05-09T13:14:20.747Z,42.9
2024-05-09T13:15:36.814Z,42.9
2024-05-09T13:16:52.902Z,42.9
2024-05-09T13:18:08.968Z,42.9
2024-05-09T13:19:25.146Z,42.9
2024-05-09T13:20:40.318Z,42.9
2024-05-09T13:21:56.319Z,42.9
2024-05-09T13:23:12.336Z,42.9
2024-05-09T13:24:28.359Z,42.9
2024-05-09T13:25:44.368Z,42.9
2024-05-09T13:27:00.399Z,42.8
2024-05-09T13:28:16.417Z,42.8
2024-05-09T13:29:32.448Z,42.8
2024-05-09T13:30:48.463Z,42.8
2024-05-09T13:32:04.480Z,42.8
2024-05-09T13:33:20.511Z,42.7
2024-05-09T13:34:36.522Z,42.7
2024-05-09T13:35:52.544Z,42.7
2024-05-09T13:37:08.557Z,42.5
2024-05-09T13:38:24.585Z,42.5
2024-05-09T13:39:40.594Z,42.4
2024-05-09T13:40:56.625Z,42.4
2024-05-09T13:42:12.636Z,42.3
2024-05-09T13:43:28.651Z,42.3
2024-05-09T13:44:44.684Z,42.3
2024-05-09T13:46:00.706Z,42.2
2024-05-09T13:47:16.702Z,42.2
2024-05-09T13:48:32.718Z,42.2
2024-05-09T13:49:48.743Z,42.2
2024-05-09T13:51:04.752Z,42.2
2024-05-09T13:52:20.818Z,42.2
2024-05-09T13:53:36.902Z,42.1
2024-05-09T13:54:52.964Z,42.1
2024-05-09T13:56:09.037Z,42
2024-05-09T13:57:25.096Z,42
2024-05-09T13:58:41.169Z,42
2024-05-09T13:59:57.256Z,41.9
2024-05-09T14:01:13.333Z,41.8
2024-05-09T14:02:29.404Z,41.8
2024-05-09T14:03:45.470Z,41.7
2024-05-09T14:05:01.543Z,41.7
2024-05-09T14:06:17.614Z,41.6
2024-05-09T14:07:33.676Z,41.4
2024-05-09T14:08:49.854Z,41.3
2024-05-09T14:10:05.013Z,41.2
2024-05-09T14:11:21.020Z,41
2024-05-09T14:12:37.036Z,41
2024-05-09T14:13:53.045Z,41
2024-05-09T14:15:09.058Z,40.9
2024-05-09T14:16:25.059Z,41
2024-05-09T14:17:41.060Z,41
2024-05-09T14:18:57.084Z,41
2024-05-09T14:20:13.072Z,41
2024-05-09T14:21:29.089Z,41.1
2024-05-09T14:22:45.091Z,41.1
2024-05-09T14:24:01.108Z,41.1
2024-05-09T14:25:17.104Z,41.1
2024-05-09T14:26:33.128Z,41.1
2024-05-09T14:27:49.131Z,41.2
2024-05-09T14:29:05.133Z,41.2
2024-05-09T14:30:21.143Z,41.2
2024-05-09T14:31:37.153Z,41.3
2024-05-09T14:32:53.168Z,41.3
2024-05-09T14:34:09.178Z,41.3
2024-05-09T14:35:25.188Z,41.3
2024-05-09T14:36:41.190Z,41.3
2024-05-09T14:37:57.213Z,41.3
2024-05-09T14:39:13.217Z,41.4
2024-05-09T14:40:29.233Z,41.4
2024-05-09T14:41:45.301Z,41.5
2024-05-09T14:43:01.366Z,41.5
2024-05-09T14:44:17.446Z,41.5
2024-05-09T14:45:33.504Z,41.5
2024-05-09T14:46:49.570Z,41.5
2024-05-09T14:48:05.644Z,41.6
2024-05-09T14:49:21.696Z,41.6
2024-05-09T14:50:37.776Z,41.6
2024-05-09T14:51:53.842Z,41.7
2024-05-09T14:53:09.901Z,41.7
2024-05-09T14:54:25.961Z,41.7
2024-05-09T14:55:42.041Z,41.7
2024-05-09T14:56:58.107Z,41.8
2024-05-09T14:58:14.273Z,41.8
2024-05-09T14:59:29.491Z,41.9
2024-05-09T15:00:45.574Z,41.9
2024-05-09T15:02:01.622Z,41.9
2024-05-09T15:03:17.706Z,42
2024-05-09T15:04:33.763Z,42
2024-05-09T15:05:49.828Z,42
2024-05-09T15:07:05.894Z,42
2024-05-09T15:08:21.946Z,42.1
2024-05-09T15:09:38.026Z,42
2024-05-09T15:10:54.081Z,42.1
2024-05-09T15:12:10.169Z,42.1
2024-05-09T15:13:26.225Z,42.2
2024-05-09T15:14:42.298Z,42.2
2024-05-09T15:15:58.371Z,42.3
2024-05-09T15:18:30.518Z,42.4
2024-05-09T15:19:46.591Z,42.4
2024-05-09T15:21:02.664Z,42.5
2024-05-09T15:22:18.712Z,42.5
2024-05-09T15:23:34.784Z,42.5
2024-05-09T15:24:50.848Z,42.6
2024-05-09T15:26:06.908Z,42.6
2024-05-09T15:27:22.981Z,42.7
2024-05-09T15:28:39.040Z,42.7
2024-05-09T15:29:55.113Z,42.8
2024-05-09T15:31:11.271Z,42.9
2024-05-09T15:32:26.441Z,42.9
2024-05-09T15:33:42.458Z,43
2024-05-09T15:34:58.469Z,43
2024-05-09T15:36:14.474Z,43
2024-05-09T15:37:30.493Z,43
2024-05-09T15:38:46.503Z,43.1
2024-05-09T15:40:02.520Z,43.1
2024-05-09T15:41:18.550Z,43.1
2024-05-09T15:42:34.553Z,43.2
2024-05-09T15:43:50.576Z,43.2
2024-05-09T15:45:06.000Z,43.2
2024-05-09T15:46:22.604Z,43.2
2024-05-09T15:47:38.619Z,43.2
2024-05-09T15:48:54.643Z,43.3
2024-05-09T15:50:10.000Z,43.3
2024-05-09T15:51:26.678Z,43.3
2024-05-09T15:52:42.685Z,43.3
2024-05-09T15:53:58.695Z,43.3
2024-05-09T15:55:14.712Z,43.3
2024-05-09T15:56:30.717Z,43.3
2024-05-09T15:57:46.734Z,43.3
2024-05-09T15:59:02.734Z,43.4
2024-05-09T16:00:18.764Z,43.4
2024-05-09T16:01:34.768Z,43.3
2024-05-09T16:02:50.778Z,43.2
2024-05-09T16:04:06.849Z,42.9
2024-05-09T16:05:22.902Z,42.7
2024-05-09T16:06:38.968Z,42.7
2024-05-09T16:07:55.041Z,42.6
2024-05-09T16:09:11.117Z,42.6
2024-05-09T16:10:27.173Z,42.7
2024-05-09T16:11:43.257Z,42.8
2024-05-09T16:12:59.320Z,43.1
2024-05-09T16:14:15.379Z,43.1
2024-05-09T16:15:31.460Z,43.2
2024-05-09T16:16:47.522Z,43.3
2024-05-09T16:18:03.585Z,43.3
2024-05-09T16:19:19.671Z,43.4
2024-05-09T16:20:35.851Z,43.4
2024-05-09T16:21:51.030Z,43.4
2024-05-09T16:23:07.050Z,43.4
2024-05-09T16:24:23.058Z,43.5
2024-05-09T16:25:39.084Z,43.6
2024-05-09T16:26:55.100Z,43.6
2024-05-09T16:28:11.112Z,43.7
2024-05-09T16:29:27.116Z,43.7
2024-05-09T16:30:43.122Z,43.8
2024-05-09T16:31:59.133Z,43.9
2024-05-09T16:33:15.137Z,43.8
2024-05-09T16:34:31.144Z,43.9
2024-05-09T16:35:47.175Z,43.9
2024-05-09T16:37:03.164Z,43.9
2024-05-09T16:38:19.179Z,43.9
2024-05-09T16:39:35.192Z,43.9
2024-05-09T16:40:51.179Z,43.9
2024-05-09T16:42:07.187Z,43.9
2024-05-09T16:43:23.191Z,44
2024-05-09T16:44:39.207Z,44
2024-05-09T16:45:55.206Z,44
2024-05-09T16:47:11.212Z,44
2024-05-09T16:48:27.222Z,43.9
2024-05-09T16:49:43.218Z,43.9
2024-05-09T16:50:59.220Z,44
2024-05-09T16:52:15.230Z,44
2024-05-09T16:53:31.295Z,44
2024-05-09T16:54:47.369Z,44
2024-05-09T16:56:03.435Z,44
2024-05-09T16:57:19.488Z,44.1
2024-05-09T16:58:35.559Z,44.1
2024-05-09T16:59:51.634Z,44.1
2024-05-09T17:01:07.694Z,44.2